sensor_id;sensor_type;location;lat;lon;timestamp;P1;durP1;ratioP1;P2;durP2;ratioP2
72569;SDS011;60594;50.204;8.844;2022-08-20T00:00:33;4.75;;;2.58;;
72569;SDS011;60594;50.204;8.844;2022-08-20T00:03:07;6.78;;;2.95;;
72569;SDS011;60594;50.204;8.844;2022-08-20T00:05:50;5.40;;;2.70;;
72569;SDS011;60594;50.204;8.844;2022-08-20T00:08:20;6.78;;;3.22;;
72569;SDS011;60594;50.204;8.844;2022-08-20T00:10:48;4.55;;;2.80;;
72569;SDS011;60594;50.204;8.844;2022-08-20T00:13:18;5.07;;;2.85;;
72569;SDS011;60594;50.204;8.844;2022-08-20T00:15:50;5.85;;;3.00;;
72569;SDS011;60594;50.204;8.844;2022-08-20T00:18:17;5.22;;;2.70;;
72569;SDS011;60594;50.204;8.844;2022-08-20T00:20:45;5.93;;;2.65;;
72569;SDS011;60594;50.204;8.844;2022-08-20T00:23:14;5.60;;;2.53;;
72569;SDS011;60594;50.204;8.844;2022-08-20T00:25:42;6.40;;;3.03;;
72569;SDS011;60594;50.204;8.844;2022-08-20T00:30:37;5.60;;;3.03;;
72569;SDS011;60594;50.204;8.844;2022-08-20T00:33:07;4.90;;;2.70;;
72569;SDS011;60594;50.204;8.844;2022-08-20T00:35:39;5.13;;;2.65;;
72569;SDS011;60594;50.204;8.844;2022-08-20T00:38:08;6.32;;;2.70;;
72569;SDS011;60594;50.204;8.844;2022-08-20T00:40:36;4.72;;;2.50;;
72569;SDS011;60594;50.204;8.844;2022-08-20T00:43:07;5.38;;;2.60;;
72569;SDS011;60594;50.204;8.844;2022-08-20T00:45:54;5.22;;;2.83;;
72569;SDS011;60594;50.204;8.844;2022-08-20T00:48:25;4.95;;;2.88;;
72569;SDS011;60594;50.204;8.844;2022-08-20T00:50:55;6.43;;;3.17;;
72569;SDS011;60594;50.204;8.844;2022-08-20T00:53:27;5.55;;;2.67;;
72569;SDS011;60594;50.204;8.844;2022-08-20T00:55:54;4.90;;;2.83;;
72569;SDS011;60594;50.204;8.844;2022-08-20T00:58:21;5.78;;;2.83;;
72569;SDS011;60594;50.204;8.844;2022-08-20T01:00:48;4.68;;;2.63;;
72569;SDS011;60594;50.204;8.844;2022-08-20T01:03:16;4.82;;;2.78;;
72569;SDS011;60594;50.204;8.844;2022-08-20T01:05:46;5.70;;;2.63;;
72569;SDS011;60594;50.204;8.844;2022-08-20T01:08:18;5.38;;;2.42;;
72569;SDS011;60594;50.204;8.844;2022-08-20T01:10:48;4.30;;;2.50;;
72569;SDS011;60594;50.204;8.844;2022-08-20T01:13:20;5.50;;;2.65;;
72569;SDS011;60594;50.204;8.844;2022-08-20T01:15:51;5.93;;;2.60;;
72569;SDS011;60594;50.204;8.844;2022-08-20T01:18:23;5.65;;;2.78;;
72569;SDS011;60594;50.204;8.844;2022-08-20T01:20:59;5.65;;;2.70;;
72569;SDS011;60594;50.204;8.844;2022-08-20T01:23:38;5.00;;;2.85;;
72569;SDS011;60594;50.204;8.844;2022-08-20T01:31:11;4.38;;;2.33;;
72569;SDS011;60594;50.204;8.844;2022-08-20T01:33:41;6.65;;;2.63;;
72569;SDS011;60594;50.204;8.844;2022-08-20T01:36:12;7.38;;;2.60;;
72569;SDS011;60594;50.204;8.844;2022-08-20T01:38:40;4.57;;;2.45;;
72569;SDS011;60594;50.204;8.844;2022-08-20T01:43:58;4.50;;;2.58;;
72569;SDS011;60594;50.204;8.844;2022-08-20T01:46:28;5.35;;;2.70;;
72569;SDS011;60594;50.204;8.844;2022-08-20T01:48:58;4.10;;;2.03;;
72569;SDS011;60594;50.204;8.844;2022-08-20T01:51:26;7.03;;;2.60;;
72569;SDS011;60594;50.204;8.844;2022-08-20T01:53:55;5.18;;;2.50;;
72569;SDS011;60594;50.204;8.844;2022-08-20T01:56:26;5.03;;;2.72;;
72569;SDS011;60594;50.204;8.844;2022-08-20T01:58:57;4.88;;;2.47;;
72569;SDS011;60594;50.204;8.844;2022-08-20T02:01:28;5.20;;;2.42;;
72569;SDS011;60594;50.204;8.844;2022-08-20T02:04:06;4.10;;;2.35;;
72569;SDS011;60594;50.204;8.844;2022-08-20T02:06:37;4.40;;;2.40;;
72569;SDS011;60594;50.204;8.844;2022-08-20T02:09:06;4.70;;;2.60;;
72569;SDS011;60594;50.204;8.844;2022-08-20T02:11:34;5.38;;;2.53;;
72569;SDS011;60594;50.204;8.844;2022-08-20T02:16:31;6.18;;;2.28;;
72569;SDS011;60594;50.204;8.844;2022-08-20T02:19:01;4.55;;;2.42;;
72569;SDS011;60594;50.204;8.844;2022-08-20T02:21:35;4.32;;;2.42;;
72569;SDS011;60594;50.204;8.844;2022-08-20T02:24:04;4.65;;;2.55;;
72569;SDS011;60594;50.204;8.844;2022-08-20T02:26:31;5.47;;;2.65;;
72569;SDS011;60594;50.204;8.844;2022-08-20T02:28:57;5.63;;;2.78;;
72569;SDS011;60594;50.204;8.844;2022-08-20T02:31:24;5.10;;;2.53;;
72569;SDS011;60594;50.204;8.844;2022-08-20T02:33:50;4.90;;;2.67;;
72569;SDS011;60594;50.204;8.844;2022-08-20T02:36:17;4.68;;;2.58;;
72569;SDS011;60594;50.204;8.844;2022-08-20T02:38:45;4.63;;;2.42;;
72569;SDS011;60594;50.204;8.844;2022-08-20T02:41:11;5.90;;;2.35;;
72569;SDS011;60594;50.204;8.844;2022-08-20T02:43:38;4.93;;;2.72;;
72569;SDS011;60594;50.204;8.844;2022-08-20T02:46:05;6.32;;;3.20;;
72569;SDS011;60594;50.204;8.844;2022-08-20T02:48:32;5.65;;;2.55;;
72569;SDS011;60594;50.204;8.844;2022-08-20T02:51:00;7.00;;;3.10;;
72569;SDS011;60594;50.204;8.844;2022-08-20T02:53:34;5.55;;;3.00;;
72569;SDS011;60594;50.204;8.844;2022-08-20T02:56:06;6.80;;;2.83;;
72569;SDS011;60594;50.204;8.844;2022-08-20T02:58:34;5.25;;;2.95;;
72569;SDS011;60594;50.204;8.844;2022-08-20T03:01:01;5.45;;;3.05;;
72569;SDS011;60594;50.204;8.844;2022-08-20T03:03:31;5.22;;;2.90;;
72569;SDS011;60594;50.204;8.844;2022-08-20T03:05:58;4.55;;;2.63;;
72569;SDS011;60594;50.204;8.844;2022-08-20T03:08:25;4.50;;;2.40;;
72569;SDS011;60594;50.204;8.844;2022-08-20T03:10:54;6.32;;;2.80;;
72569;SDS011;60594;50.204;8.844;2022-08-20T03:13:21;4.78;;;2.47;;
72569;SDS011;60594;50.204;8.844;2022-08-20T03:15:51;4.88;;;2.75;;
72569;SDS011;60594;50.204;8.844;2022-08-20T03:18:20;5.82;;;2.67;;
72569;SDS011;60594;50.204;8.844;2022-08-20T03:20:48;6.45;;;3.15;;
72569;SDS011;60594;50.204;8.844;2022-08-20T03:23:15;4.85;;;2.50;;
72569;SDS011;60594;50.204;8.844;2022-08-20T03:25:43;6.40;;;2.63;;
72569;SDS011;60594;50.204;8.844;2022-08-20T03:28:16;4.35;;;2.67;;
72569;SDS011;60594;50.204;8.844;2022-08-20T03:30:44;5.50;;;3.10;;
72569;SDS011;60594;50.204;8.844;2022-08-20T03:33:12;5.47;;;2.75;;
72569;SDS011;60594;50.204;8.844;2022-08-20T03:38:10;7.20;;;3.40;;
72569;SDS011;60594;50.204;8.844;2022-08-20T03:40:37;5.20;;;2.78;;
72569;SDS011;60594;50.204;8.844;2022-08-20T03:43:04;5.57;;;2.83;;
72569;SDS011;60594;50.204;8.844;2022-08-20T03:45:36;6.90;;;3.08;;
72569;SDS011;60594;50.204;8.844;2022-08-20T03:48:05;5.95;;;3.20;;
72569;SDS011;60594;50.204;8.844;2022-08-20T03:50:33;5.85;;;2.88;;
72569;SDS011;60594;50.204;8.844;2022-08-20T03:53:00;5.57;;;3.05;;
72569;SDS011;60594;50.204;8.844;2022-08-20T03:55:28;5.40;;;3.25;;
72569;SDS011;60594;50.204;8.844;2022-08-20T03:57:58;6.20;;;3.20;;
72569;SDS011;60594;50.204;8.844;2022-08-20T04:00:30;5.95;;;3.50;;
72569;SDS011;60594;50.204;8.844;2022-08-20T04:03:01;6.22;;;2.88;;
72569;SDS011;60594;50.204;8.844;2022-08-20T04:05:28;5.95;;;2.97;;
72569;SDS011;60594;50.204;8.844;2022-08-20T04:07:56;5.97;;;3.22;;
72569;SDS011;60594;50.204;8.844;2022-08-20T04:10:24;5.22;;;2.85;;
72569;SDS011;60594;50.204;8.844;2022-08-20T04:12:50;6.00;;;2.83;;
72569;SDS011;60594;50.204;8.844;2022-08-20T04:15:18;5.43;;;3.15;;
72569;SDS011;60594;50.204;8.844;2022-08-20T04:17:47;4.72;;;2.58;;
72569;SDS011;60594;50.204;8.844;2022-08-20T04:20:16;4.85;;;3.10;;
72569;SDS011;60594;50.204;8.844;2022-08-20T04:22:50;5.50;;;3.13;;
72569;SDS011;60594;50.204;8.844;2022-08-20T04:25:17;5.07;;;2.75;;
72569;SDS011;60594;50.204;8.844;2022-08-20T04:27:44;5.20;;;3.13;;
72569;SDS011;60594;50.204;8.844;2022-08-20T04:30:12;5.07;;;2.95;;
72569;SDS011;60594;50.204;8.844;2022-08-20T04:32:41;6.85;;;3.00;;
72569;SDS011;60594;50.204;8.844;2022-08-20T04:35:10;6.45;;;3.15;;
72569;SDS011;60594;50.204;8.844;2022-08-20T04:37:43;7.47;;;3.20;;
72569;SDS011;60594;50.204;8.844;2022-08-20T04:40:16;5.70;;;3.50;;
72569;SDS011;60594;50.204;8.844;2022-08-20T04:43:03;6.72;;;3.65;;
72569;SDS011;60594;50.204;8.844;2022-08-20T04:45:31;6.35;;;3.72;;
72569;SDS011;60594;50.204;8.844;2022-08-20T04:48:02;5.43;;;2.97;;
72569;SDS011;60594;50.204;8.844;2022-08-20T04:50:31;6.47;;;3.70;;
72569;SDS011;60594;50.204;8.844;2022-08-20T04:53:06;8.48;;;4.78;;
72569;SDS011;60594;50.204;8.844;2022-08-20T04:55:35;8.20;;;4.63;;
72569;SDS011;60594;50.204;8.844;2022-08-20T04:58:04;8.75;;;4.85;;
72569;SDS011;60594;50.204;8.844;2022-08-20T05:00:33;10.00;;;5.22;;
72569;SDS011;60594;50.204;8.844;2022-08-20T05:03:00;7.85;;;4.63;;
72569;SDS011;60594;50.204;8.844;2022-08-20T05:05:29;9.13;;;5.50;;
72569;SDS011;60594;50.204;8.844;2022-08-20T05:07:56;9.30;;;5.70;;
72569;SDS011;60594;50.204;8.844;2022-08-20T05:10:23;9.15;;;5.47;;
72569;SDS011;60594;50.204;8.844;2022-08-20T05:12:50;8.55;;;5.07;;
72569;SDS011;60594;50.204;8.844;2022-08-20T05:15:17;8.50;;;5.28;;
72569;SDS011;60594;50.204;8.844;2022-08-20T05:17:44;8.50;;;4.97;;
72569;SDS011;60594;50.204;8.844;2022-08-20T05:20:14;9.90;;;5.20;;
72569;SDS011;60594;50.204;8.844;2022-08-20T05:22:43;8.75;;;4.70;;
72569;SDS011;60594;50.204;8.844;2022-08-20T05:25:10;9.25;;;5.47;;
72569;SDS011;60594;50.204;8.844;2022-08-20T05:27:36;9.18;;;5.45;;
72569;SDS011;60594;50.204;8.844;2022-08-20T05:30:04;9.45;;;5.47;;
72569;SDS011;60594;50.204;8.844;2022-08-20T05:32:34;7.88;;;4.93;;
72569;SDS011;60594;50.204;8.844;2022-08-20T05:35:02;10.48;;;4.75;;
72569;SDS011;60594;50.204;8.844;2022-08-20T05:37:36;7.72;;;4.18;;
72569;SDS011;60594;50.204;8.844;2022-08-20T05:40:11;7.72;;;4.38;;
72569;SDS011;60594;50.204;8.844;2022-08-20T05:42:39;6.25;;;3.40;;
72569;SDS011;60594;50.204;8.844;2022-08-20T05:45:06;6.60;;;4.03;;
72569;SDS011;60594;50.204;8.844;2022-08-20T05:47:37;7.13;;;4.13;;
72569;SDS011;60594;50.204;8.844;2022-08-20T05:50:08;6.25;;;3.50;;
72569;SDS011;60594;50.204;8.844;2022-08-20T05:52:36;6.35;;;3.95;;
72569;SDS011;60594;50.204;8.844;2022-08-20T05:55:03;8.23;;;4.30;;
72569;SDS011;60594;50.204;8.844;2022-08-20T05:57:31;9.20;;;4.32;;
72569;SDS011;60594;50.204;8.844;2022-08-20T06:00:04;7.72;;;4.32;;
72569;SDS011;60594;50.204;8.844;2022-08-20T06:02:41;7.32;;;4.20;;
72569;SDS011;60594;50.204;8.844;2022-08-20T06:05:26;6.85;;;3.83;;
72569;SDS011;60594;50.204;8.844;2022-08-20T06:07:53;7.22;;;4.32;;
72569;SDS011;60594;50.204;8.844;2022-08-20T06:10:20;6.80;;;3.88;;
72569;SDS011;60594;50.204;8.844;2022-08-20T06:12:46;6.20;;;3.95;;
72569;SDS011;60594;50.204;8.844;2022-08-20T06:15:14;7.15;;;4.07;;
72569;SDS011;60594;50.204;8.844;2022-08-20T06:17:41;6.72;;;4.00;;
72569;SDS011;60594;50.204;8.844;2022-08-20T06:20:08;7.63;;;3.97;;
72569;SDS011;60594;50.204;8.844;2022-08-20T06:22:35;7.78;;;4.28;;
72569;SDS011;60594;50.204;8.844;2022-08-20T06:25:04;8.80;;;4.70;;
72569;SDS011;60594;50.204;8.844;2022-08-20T06:27:33;7.70;;;4.80;;
72569;SDS011;60594;50.204;8.844;2022-08-20T06:30:06;8.25;;;4.88;;
72569;SDS011;60594;50.204;8.844;2022-08-20T06:32:39;7.97;;;4.63;;
72569;SDS011;60594;50.204;8.844;2022-08-20T06:35:07;7.88;;;4.78;;
72569;SDS011;60594;50.204;8.844;2022-08-20T06:37:35;7.78;;;4.75;;
72569;SDS011;60594;50.204;8.844;2022-08-20T06:40:04;9.27;;;4.72;;
72569;SDS011;60594;50.204;8.844;2022-08-20T06:42:34;9.05;;;5.18;;
72569;SDS011;60594;50.204;8.844;2022-08-20T06:45:00;7.75;;;4.57;;
72569;SDS011;60594;50.204;8.844;2022-08-20T06:47:30;9.18;;;5.70;;
72569;SDS011;60594;50.204;8.844;2022-08-20T06:49:58;8.68;;;5.15;;
72569;SDS011;60594;50.204;8.844;2022-08-20T06:52:24;9.02;;;5.43;;
72569;SDS011;60594;50.204;8.844;2022-08-20T06:54:51;9.85;;;5.95;;
72569;SDS011;60594;50.204;8.844;2022-08-20T06:57:18;8.50;;;5.03;;
72569;SDS011;60594;50.204;8.844;2022-08-20T06:59:45;9.38;;;5.30;;
72569;SDS011;60594;50.204;8.844;2022-08-20T07:02:11;8.65;;;4.93;;
72569;SDS011;60594;50.204;8.844;2022-08-20T07:04:37;8.85;;;5.47;;
72569;SDS011;60594;50.204;8.844;2022-08-20T07:07:04;9.52;;;4.72;;
72569;SDS011;60594;50.204;8.844;2022-08-20T07:09:31;7.72;;;5.20;;
72569;SDS011;60594;50.204;8.844;2022-08-20T07:11:57;7.97;;;4.72;;
72569;SDS011;60594;50.204;8.844;2022-08-20T07:14:24;8.80;;;5.55;;
72569;SDS011;60594;50.204;8.844;2022-08-20T07:16:52;7.82;;;4.85;;
72569;SDS011;60594;50.204;8.844;2022-08-20T07:19:18;7.97;;;4.60;;
72569;SDS011;60594;50.204;8.844;2022-08-20T07:21:45;7.40;;;4.50;;
72569;SDS011;60594;50.204;8.844;2022-08-20T07:24:12;7.95;;;4.80;;
72569;SDS011;60594;50.204;8.844;2022-08-20T07:26:39;7.78;;;4.75;;
72569;SDS011;60594;50.204;8.844;2022-08-20T07:29:05;8.30;;;4.93;;
72569;SDS011;60594;50.204;8.844;2022-08-20T07:31:32;7.50;;;4.32;;
72569;SDS011;60594;50.204;8.844;2022-08-20T07:34:17;6.93;;;4.13;;
72569;SDS011;60594;50.204;8.844;2022-08-20T07:36:45;8.73;;;4.63;;
72569;SDS011;60594;50.204;8.844;2022-08-20T07:39:13;7.22;;;4.65;;
72569;SDS011;60594;50.204;8.844;2022-08-20T07:41:40;6.80;;;4.15;;
72569;SDS011;60594;50.204;8.844;2022-08-20T07:44:06;6.68;;;3.90;;
72569;SDS011;60594;50.204;8.844;2022-08-20T07:46:34;7.70;;;4.50;;
72569;SDS011;60594;50.204;8.844;2022-08-20T07:49:00;8.77;;;4.45;;
72569;SDS011;60594;50.204;8.844;2022-08-20T07:51:27;7.25;;;4.43;;
72569;SDS011;60594;50.204;8.844;2022-08-20T07:53:55;6.63;;;4.03;;
72569;SDS011;60594;50.204;8.844;2022-08-20T07:56:24;7.05;;;4.25;;
72569;SDS011;60594;50.204;8.844;2022-08-20T07:58:52;7.15;;;4.15;;
72569;SDS011;60594;50.204;8.844;2022-08-20T08:01:22;7.57;;;4.32;;
72569;SDS011;60594;50.204;8.844;2022-08-20T08:03:53;7.28;;;4.13;;
72569;SDS011;60594;50.204;8.844;2022-08-20T08:06:21;6.93;;;3.60;;
72569;SDS011;60594;50.204;8.844;2022-08-20T08:08:51;5.72;;;3.58;;
72569;SDS011;60594;50.204;8.844;2022-08-20T08:11:17;6.07;;;3.97;;
72569;SDS011;60594;50.204;8.844;2022-08-20T08:13:44;7.03;;;3.83;;
72569;SDS011;60594;50.204;8.844;2022-08-20T08:16:12;6.22;;;3.92;;
72569;SDS011;60594;50.204;8.844;2022-08-20T08:18:47;5.90;;;4.25;;
72569;SDS011;60594;50.204;8.844;2022-08-20T08:21:18;5.45;;;3.60;;
72569;SDS011;60594;50.204;8.844;2022-08-20T08:23:50;7.30;;;3.70;;
72569;SDS011;60594;50.204;8.844;2022-08-20T08:26:19;7.18;;;4.25;;
72569;SDS011;60594;50.204;8.844;2022-08-20T08:28:46;6.45;;;3.97;;
72569;SDS011;60594;50.204;8.844;2022-08-20T08:31:14;7.03;;;3.90;;
72569;SDS011;60594;50.204;8.844;2022-08-20T08:33:41;6.70;;;4.18;;
72569;SDS011;60594;50.204;8.844;2022-08-20T08:36:10;6.50;;;4.05;;
72569;SDS011;60594;50.204;8.844;2022-08-20T08:38:40;7.07;;;4.30;;
72569;SDS011;60594;50.204;8.844;2022-08-20T08:43:49;7.13;;;4.05;;
72569;SDS011;60594;50.204;8.844;2022-08-20T08:46:19;5.95;;;3.50;;
72569;SDS011;60594;50.204;8.844;2022-08-20T08:48:51;5.93;;;3.45;;
72569;SDS011;60594;50.204;8.844;2022-08-20T08:51:38;5.72;;;3.70;;
72569;SDS011;60594;50.204;8.844;2022-08-20T08:54:11;7.05;;;3.67;;
72569;SDS011;60594;50.204;8.844;2022-08-20T08:56:41;5.40;;;3.38;;
72569;SDS011;60594;50.204;8.844;2022-08-20T08:59:08;5.75;;;3.70;;
72569;SDS011;60594;50.204;8.844;2022-08-20T09:01:42;5.82;;;3.67;;
72569;SDS011;60594;50.204;8.844;2022-08-20T09:04:12;6.72;;;3.65;;
72569;SDS011;60594;50.204;8.844;2022-08-20T09:06:40;5.88;;;3.72;;
72569;SDS011;60594;50.204;8.844;2022-08-20T09:09:52;5.70;;;3.30;;
72569;SDS011;60594;50.204;8.844;2022-08-20T09:12:12;6.20;;;3.40;;
72569;SDS011;60594;50.204;8.844;2022-08-20T09:14:44;6.18;;;3.28;;
72569;SDS011;60594;50.204;8.844;2022-08-20T09:17:13;5.50;;;3.28;;
72569;SDS011;60594;50.204;8.844;2022-08-20T09:19:40;5.35;;;3.30;;
72569;SDS011;60594;50.204;8.844;2022-08-20T09:22:09;6.25;;;3.30;;
72569;SDS011;60594;50.204;8.844;2022-08-20T09:24:39;5.07;;;3.15;;
72569;SDS011;60594;50.204;8.844;2022-08-20T09:27:07;5.22;;;3.00;;
72569;SDS011;60594;50.204;8.844;2022-08-20T09:29:34;5.63;;;3.45;;
72569;SDS011;60594;50.204;8.844;2022-08-20T09:32:02;5.25;;;3.17;;
72569;SDS011;60594;50.204;8.844;2022-08-20T09:34:49;6.55;;;3.90;;
72569;SDS011;60594;50.204;8.844;2022-08-20T09:37:22;5.72;;;3.35;;
72569;SDS011;60594;50.204;8.844;2022-08-20T09:39:49;6.47;;;3.50;;
72569;SDS011;60594;50.204;8.844;2022-08-20T09:42:18;6.03;;;3.35;;
72569;SDS011;60594;50.204;8.844;2022-08-20T09:44:47;5.22;;;3.15;;
72569;SDS011;60594;50.204;8.844;2022-08-20T09:47:13;5.78;;;3.72;;
72569;SDS011;60594;50.204;8.844;2022-08-20T09:49:40;5.07;;;3.20;;
72569;SDS011;60594;50.204;8.844;2022-08-20T09:52:08;5.10;;;2.63;;
72569;SDS011;60594;50.204;8.844;2022-08-20T09:54:36;4.60;;;2.78;;
72569;SDS011;60594;50.204;8.844;2022-08-20T09:57:05;5.50;;;3.10;;
72569;SDS011;60594;50.204;8.844;2022-08-20T09:59:34;5.20;;;2.78;;
72569;SDS011;60594;50.204;8.844;2022-08-20T10:04:28;5.10;;;2.50;;
72569;SDS011;60594;50.204;8.844;2022-08-20T10:06:55;5.18;;;2.70;;
72569;SDS011;60594;50.204;8.844;2022-08-20T10:09:22;6.10;;;2.80;;
72569;SDS011;60594;50.204;8.844;2022-08-20T10:11:49;5.47;;;2.90;;
72569;SDS011;60594;50.204;8.844;2022-08-20T10:14:18;6.82;;;3.00;;
72569;SDS011;60594;50.204;8.844;2022-08-20T10:16:53;5.65;;;2.67;;
72569;SDS011;60594;50.204;8.844;2022-08-20T10:19:20;4.93;;;2.65;;
72569;SDS011;60594;50.204;8.844;2022-08-20T10:21:49;5.70;;;2.72;;
72569;SDS011;60594;50.204;8.844;2022-08-20T10:24:17;5.22;;;2.70;;
72569;SDS011;60594;50.204;8.844;2022-08-20T10:26:44;5.07;;;2.40;;
72569;SDS011;60594;50.204;8.844;2022-08-20T10:29:13;4.10;;;2.17;;
72569;SDS011;60594;50.204;8.844;2022-08-20T10:31:40;6.00;;;2.80;;
72569;SDS011;60594;50.204;8.844;2022-08-20T10:34:07;7.25;;;2.75;;
72569;SDS011;60594;50.204;8.844;2022-08-20T10:36:34;6.22;;;2.70;;
72569;SDS011;60594;50.204;8.844;2022-08-20T10:39:00;5.00;;;2.60;;
72569;SDS011;60594;50.204;8.844;2022-08-20T10:41:27;5.22;;;2.67;;
72569;SDS011;60594;50.204;8.844;2022-08-20T10:43:54;4.45;;;2.40;;
72569;SDS011;60594;50.204;8.844;2022-08-20T10:46:20;4.55;;;2.45;;
72569;SDS011;60594;50.204;8.844;2022-08-20T10:48:47;4.22;;;2.00;;
72569;SDS011;60594;50.204;8.844;2022-08-20T10:51:13;4.70;;;2.13;;
72569;SDS011;60594;50.204;8.844;2022-08-20T10:53:42;3.90;;;2.00;;
72569;SDS011;60594;50.204;8.844;2022-08-20T10:56:12;3.05;;;1.63;;
72569;SDS011;60594;50.204;8.844;2022-08-20T10:58:39;4.13;;;1.65;;
72569;SDS011;60594;50.204;8.844;2022-08-20T11:01:06;3.35;;;1.70;;
72569;SDS011;60594;50.204;8.844;2022-08-20T11:03:33;2.78;;;1.40;;
72569;SDS011;60594;50.204;8.844;2022-08-20T11:06:05;6.70;;;3.05;;
72569;SDS011;60594;50.204;8.844;2022-08-20T11:08:32;3.58;;;1.90;;
72569;SDS011;60594;50.204;8.844;2022-08-20T11:10:58;3.35;;;1.67;;
72569;SDS011;60594;50.204;8.844;2022-08-20T11:13:25;3.15;;;1.58;;
72569;SDS011;60594;50.204;8.844;2022-08-20T11:15:52;3.20;;;1.50;;
72569;SDS011;60594;50.204;8.844;2022-08-20T11:18:18;3.15;;;1.58;;
72569;SDS011;60594;50.204;8.844;2022-08-20T11:20:46;3.00;;;1.50;;
72569;SDS011;60594;50.204;8.844;2022-08-20T11:23:14;2.90;;;1.40;;
72569;SDS011;60594;50.204;8.844;2022-08-20T11:25:42;3.00;;;1.40;;
72569;SDS011;60594;50.204;8.844;2022-08-20T11:28:08;3.15;;;1.50;;
72569;SDS011;60594;50.204;8.844;2022-08-20T11:30:35;3.05;;;1.60;;
72569;SDS011;60594;50.204;8.844;2022-08-20T11:33:02;3.95;;;1.50;;
72569;SDS011;60594;50.204;8.844;2022-08-20T11:35:30;3.00;;;1.50;;
72569;SDS011;60594;50.204;8.844;2022-08-20T11:37:58;3.00;;;1.40;;
72569;SDS011;60594;50.204;8.844;2022-08-20T11:40:25;2.90;;;1.50;;
72569;SDS011;60594;50.204;8.844;2022-08-20T11:42:52;2.67;;;1.40;;
72569;SDS011;60594;50.204;8.844;2022-08-20T11:45:19;3.08;;;1.48;;
72569;SDS011;60594;50.204;8.844;2022-08-20T11:47:45;3.03;;;1.63;;
72569;SDS011;60594;50.204;8.844;2022-08-20T11:50:13;3.65;;;1.60;;
72569;SDS011;60594;50.204;8.844;2022-08-20T11:52:42;3.00;;;1.63;;
72569;SDS011;60594;50.204;8.844;2022-08-20T11:55:09;3.30;;;2.03;;
72569;SDS011;60594;50.204;8.844;2022-08-20T11:57:40;2.92;;;1.58;;
72569;SDS011;60594;50.204;8.844;2022-08-20T12:00:09;3.30;;;1.80;;
72569;SDS011;60594;50.204;8.844;2022-08-20T12:02:40;4.18;;;1.80;;
72569;SDS011;60594;50.204;8.844;2022-08-20T12:05:08;3.20;;;1.70;;
72569;SDS011;60594;50.204;8.844;2022-08-20T12:07:39;3.03;;;1.73;;
72569;SDS011;60594;50.204;8.844;2022-08-20T12:10:06;2.92;;;1.55;;
72569;SDS011;60594;50.204;8.844;2022-08-20T12:12:36;3.38;;;1.70;;
72569;SDS011;60594;50.204;8.844;2022-08-20T12:15:07;3.13;;;1.67;;
72569;SDS011;60594;50.204;8.844;2022-08-20T12:17:35;3.40;;;1.75;;
72569;SDS011;60594;50.204;8.844;2022-08-20T12:20:04;3.38;;;1.80;;
72569;SDS011;60594;50.204;8.844;2022-08-20T12:22:37;3.70;;;1.95;;
72569;SDS011;60594;50.204;8.844;2022-08-20T12:25:05;4.10;;;1.67;;
72569;SDS011;60594;50.204;8.844;2022-08-20T12:27:33;3.13;;;1.58;;
72569;SDS011;60594;50.204;8.844;2022-08-20T12:30:03;3.08;;;1.60;;
72569;SDS011;60594;50.204;8.844;2022-08-20T12:32:31;3.30;;;1.60;;
72569;SDS011;60594;50.204;8.844;2022-08-20T12:34:58;3.28;;;1.60;;
72569;SDS011;60594;50.204;8.844;2022-08-20T12:37:26;2.72;;;1.38;;
72569;SDS011;60594;50.204;8.844;2022-08-20T12:39:56;2.90;;;1.23;;
72569;SDS011;60594;50.204;8.844;2022-08-20T12:42:24;2.70;;;1.30;;
72569;SDS011;60594;50.204;8.844;2022-08-20T12:44:52;2.95;;;1.50;;
72569;SDS011;60594;50.204;8.844;2022-08-20T12:49:49;3.00;;;1.50;;
72569;SDS011;60594;50.204;8.844;2022-08-20T12:52:19;2.78;;;1.23;;
72569;SDS011;60594;50.204;8.844;2022-08-20T12:54:48;3.28;;;1.63;;
72569;SDS011;60594;50.204;8.844;2022-08-20T12:57:15;3.00;;;1.50;;
72569;SDS011;60594;50.204;8.844;2022-08-20T12:59:49;3.25;;;1.50;;
72569;SDS011;60594;50.204;8.844;2022-08-20T13:02:15;2.95;;;1.45;;
72569;SDS011;60594;50.204;8.844;2022-08-20T13:04:46;3.40;;;1.40;;
72569;SDS011;60594;50.204;8.844;2022-08-20T13:07:14;2.72;;;1.38;;
72569;SDS011;60594;50.204;8.844;2022-08-20T13:09:41;2.67;;;1.30;;
72569;SDS011;60594;50.204;8.844;2022-08-20T13:12:08;2.80;;;1.38;;
72569;SDS011;60594;50.204;8.844;2022-08-20T13:14:39;2.70;;;1.40;;
72569;SDS011;60594;50.204;8.844;2022-08-20T13:17:06;2.67;;;1.27;;
72569;SDS011;60594;50.204;8.844;2022-08-20T13:19:37;2.40;;;1.23;;
72569;SDS011;60594;50.204;8.844;2022-08-20T13:22:05;2.70;;;1.30;;
72569;SDS011;60594;50.204;8.844;2022-08-20T13:24:32;3.03;;;1.30;;
72569;SDS011;60594;50.204;8.844;2022-08-20T13:27:02;2.85;;;1.20;;
72569;SDS011;60594;50.204;8.844;2022-08-20T13:29:34;2.28;;;1.20;;
72569;SDS011;60594;50.204;8.844;2022-08-20T13:32:02;1.95;;;0.98;;
72569;SDS011;60594;50.204;8.844;2022-08-20T13:34:31;3.58;;;1.27;;
72569;SDS011;60594;50.204;8.844;2022-08-20T13:36:58;2.58;;;1.10;;
72569;SDS011;60594;50.204;8.844;2022-08-20T13:39:24;2.28;;;0.90;;
72569;SDS011;60594;50.204;8.844;2022-08-20T13:41:51;2.60;;;1.30;;
72569;SDS011;60594;50.204;8.844;2022-08-20T13:44:18;2.20;;;1.10;;
72569;SDS011;60594;50.204;8.844;2022-08-20T13:46:45;1.90;;;1.08;;
72569;SDS011;60594;50.204;8.844;2022-08-20T13:49:18;2.28;;;1.00;;
72569;SDS011;60594;50.204;8.844;2022-08-20T13:51:45;2.30;;;1.02;;
72569;SDS011;60594;50.204;8.844;2022-08-20T13:54:11;2.75;;;1.20;;
72569;SDS011;60594;50.204;8.844;2022-08-20T13:56:38;3.28;;;1.10;;
72569;SDS011;60594;50.204;8.844;2022-08-20T13:59:05;2.30;;;0.93;;
72569;SDS011;60594;50.204;8.844;2022-08-20T14:01:32;2.22;;;0.90;;
72569;SDS011;60594;50.204;8.844;2022-08-20T14:03:59;2.50;;;1.13;;
72569;SDS011;60594;50.204;8.844;2022-08-20T14:06:25;3.38;;;1.10;;
72569;SDS011;60594;50.204;8.844;2022-08-20T14:08:52;2.50;;;1.13;;
72569;SDS011;60594;50.204;8.844;2022-08-20T14:11:18;2.60;;;1.25;;
72569;SDS011;60594;50.204;8.844;2022-08-20T14:13:45;2.50;;;1.20;;
72569;SDS011;60594;50.204;8.844;2022-08-20T14:16:12;2.65;;;1.20;;
72569;SDS011;60594;50.204;8.844;2022-08-20T14:18:39;2.53;;;1.13;;
72569;SDS011;60594;50.204;8.844;2022-08-20T14:21:05;2.97;;;1.25;;
72569;SDS011;60594;50.204;8.844;2022-08-20T14:23:32;2.65;;;1.02;;
72569;SDS011;60594;50.204;8.844;2022-08-20T14:25:58;2.88;;;1.13;;
72569;SDS011;60594;50.204;8.844;2022-08-20T14:28:25;3.03;;;1.30;;
72569;SDS011;60594;50.204;8.844;2022-08-20T14:30:51;2.92;;;1.25;;
72569;SDS011;60594;50.204;8.844;2022-08-20T14:33:18;2.83;;;1.30;;
72569;SDS011;60594;50.204;8.844;2022-08-20T14:35:45;2.38;;;1.13;;
72569;SDS011;60594;50.204;8.844;2022-08-20T14:40:38;2.97;;;1.33;;
72569;SDS011;60594;50.204;8.844;2022-08-20T14:43:05;3.30;;;1.30;;
72569;SDS011;60594;50.204;8.844;2022-08-20T14:45:35;3.15;;;1.42;;
72569;SDS011;60594;50.204;8.844;2022-08-20T14:48:01;3.08;;;1.25;;
72569;SDS011;60594;50.204;8.844;2022-08-20T14:50:33;3.38;;;1.58;;
72569;SDS011;60594;50.204;8.844;2022-08-20T14:53:00;3.38;;;1.45;;
72569;SDS011;60594;50.204;8.844;2022-08-20T14:55:30;3.85;;;1.65;;
72569;SDS011;60594;50.204;8.844;2022-08-20T14:57:59;3.45;;;1.70;;
72569;SDS011;60594;50.204;8.844;2022-08-20T15:00:28;3.58;;;1.60;;
72569;SDS011;60594;50.204;8.844;2022-08-20T15:02:55;3.35;;;1.73;;
72569;SDS011;60594;50.204;8.844;2022-08-20T15:05:23;3.60;;;1.58;;
72569;SDS011;60594;50.204;8.844;2022-08-20T15:07:49;3.33;;;1.42;;
72569;SDS011;60594;50.204;8.844;2022-08-20T15:10:24;3.15;;;1.45;;
72569;SDS011;60594;50.204;8.844;2022-08-20T15:12:56;3.00;;;1.40;;
72569;SDS011;60594;50.204;8.844;2022-08-20T15:15:25;3.28;;;1.65;;
72569;SDS011;60594;50.204;8.844;2022-08-20T15:17:53;3.67;;;1.80;;
72569;SDS011;60594;50.204;8.844;2022-08-20T15:20:23;3.25;;;1.50;;
72569;SDS011;60594;50.204;8.844;2022-08-20T15:22:51;3.35;;;1.52;;